sensor_id;sensor_type;location;lat;lon;timestamp;temperature;humidity
41447;DHT22;27185;52.040;4.490;2023-09-08T00:01:47;22.20;95.80
41447;DHT22;27185;52.040;4.490;2023-09-08T00:04:34;22.20;95.90
41447;DHT22;27185;52.040;4.490;2023-09-08T00:07:20;22.20;96.00
41447;DHT22;27185;52.040;4.490;2023-09-08T00:10:05;22.10;96.10
41447;DHT22;27185;52.040;4.490;2023-09-08T00:12:52;22.10;96.20
41447;DHT22;27185;52.040;4.490;2023-09-08T00:15:38;22.10;96.50
41447;DHT22;27185;52.040;4.490;2023-09-08T00:18:23;22.00;96.40
41447;DHT22;27185;52.040;4.490;2023-09-08T00:21:09;21.90;96.40
41447;DHT22;27185;52.040;4.490;2023-09-08T00:23:55;21.90;96.60
41447;DHT22;27185;52.040;4.490;2023-09-08T00:26:40;21.90;96.60
41447;DHT22;27185;52.040;4.490;2023-09-08T00:29:26;21.80;96.70
41447;DHT22;27185;52.040;4.490;2023-09-08T00:32:11;21.80;96.80
41447;DHT22;27185;52.040;4.490;2023-09-08T00:34:57;21.80;96.90
41447;DHT22;27185;52.040;4.490;2023-09-08T00:37:42;21.70;97.00
41447;DHT22;27185;52.040;4.490;2023-09-08T00:40:28;21.70;97.10
41447;DHT22;27185;52.040;4.490;2023-09-08T00:43:14;21.70;97.20
41447;DHT22;27185;52.040;4.490;2023-09-08T00:46:00;21.70;97.20
41447;DHT22;27185;52.040;4.490;2023-09-08T00:48:47;21.60;97.40
41447;DHT22;27185;52.040;4.490;2023-09-08T00:51:39;21.60;97.40
41447;DHT22;27185;52.040;4.490;2023-09-08T00:54:32;21.60;97.80
41447;DHT22;27185;52.040;4.490;2023-09-08T00:57:39;21.50;97.70
41447;DHT22;27185;52.040;4.490;2023-09-08T01:00:33;21.50;97.60
41447;DHT22;27185;52.040;4.490;2023-09-08T01:03:25;21.50;97.80
41447;DHT22;27185;52.040;4.490;2023-09-08T01:06:24;21.50;98.00
41447;DHT22;27185;52.040;4.490;2023-09-08T01:09:23;21.50;98.20
41447;DHT22;27185;52.040;4.490;2023-09-08T01:12:15;21.40;98.30
41447;DHT22;27185;52.040;4.490;2023-09-08T01:15:08;21.40;98.10
41447;DHT22;27185;52.040;4.490;2023-09-08T01:17:59;21.30;98.40
41447;DHT22;27185;52.040;4.490;2023-09-08T01:23:55;21.30;99.50
41447;DHT22;27185;52.040;4.490;2023-09-08T01:26:43;21.30;98.50
41447;DHT22;27185;52.040;4.490;2023-09-08T01:29:29;21.20;98.60
41447;DHT22;27185;52.040;4.490;2023-09-08T01:32:15;21.20;98.70
41447;DHT22;27185;52.040;4.490;2023-09-08T01:35:02;21.10;98.80
41447;DHT22;27185;52.040;4.490;2023-09-08T01:37:51;21.10;98.90
41447;DHT22;27185;52.040;4.490;2023-09-08T01:40:38;21.10;99.10
41447;DHT22;27185;52.040;4.490;2023-09-08T01:43:30;21.10;99.20
41447;DHT22;27185;52.040;4.490;2023-09-08T01:46:17;21.00;99.30
41447;DHT22;27185;52.040;4.490;2023-09-08T01:49:09;21.00;99.40
41447;DHT22;27185;52.040;4.490;2023-09-08T01:52:13;21.00;99.50
41447;DHT22;27185;52.040;4.490;2023-09-08T01:55:02;21.00;99.70
41447;DHT22;27185;52.040;4.490;2023-09-08T01:57:55;20.90;99.80
41447;DHT22;27185;52.040;4.490;2023-09-08T02:00:47;20.90;99.90
41447;DHT22;27185;52.040;4.490;2023-09-08T02:03:34;20.90;99.90
41447;DHT22;27185;52.040;4.490;2023-09-08T02:06:22;20.90;99.90
41447;DHT22;27185;52.040;4.490;2023-09-08T02:09:14;20.80;99.90
41447;DHT22;27185;52.040;4.490;2023-09-08T02:12:00;20.80;99.90
41447;DHT22;27185;52.040;4.490;2023-09-08T02:14:46;20.80;99.90
41447;DHT22;27185;52.040;4.490;2023-09-08T02:17:31;20.80;99.90
41447;DHT22;27185;52.040;4.490;2023-09-08T02:20:17;20.80;99.90
41447;DHT22;27185;52.040;4.490;2023-09-08T02:23:06;20.70;99.90
41447;DHT22;27185;52.040;4.490;2023-09-08T02:25:52;20.70;99.90
41447;DHT22;27185;52.040;4.490;2023-09-08T02:28:37;20.70;99.90
41447;DHT22;27185;52.040;4.490;2023-09-08T02:31:23;20.70;99.90
41447;DHT22;27185;52.040;4.490;2023-09-08T02:34:08;20.60;99.90
41447;DHT22;27185;52.040;4.490;2023-09-08T02:36:54;20.60;99.90
41447;DHT22;27185;52.040;4.490;2023-09-08T02:39:40;20.60;99.90
41447;DHT22;27185;52.040;4.490;2023-09-08T02:42:25;20.60;99.90
41447;DHT22;27185;52.040;4.490;2023-09-08T02:45:11;20.60;99.90
41447;DHT22;27185;52.040;4.490;2023-09-08T02:47:56;20.50;99.90
41447;DHT22;27185;52.040;4.490;2023-09-08T02:50:43;20.50;99.90
41447;DHT22;27185;52.040;4.490;2023-09-08T02:53:29;20.50;99.90
41447;DHT22;27185;52.040;4.490;2023-09-08T02:56:14;20.50;99.90
41447;DHT22;27185;52.040;4.490;2023-09-08T02:59:00;20.50;99.90
41447;DHT22;27185;52.040;4.490;2023-09-08T03:01:45;20.40;99.90
41447;DHT22;27185;52.040;4.490;2023-09-08T03:04:31;20.40;99.90
41447;DHT22;27185;52.040;4.490;2023-09-08T03:07:16;20.40;99.90
41447;DHT22;27185;52.040;4.490;2023-09-08T03:10:03;20.40;99.90
41447;DHT22;27185;52.040;4.490;2023-09-08T03:12:48;20.40;99.90
41447;DHT22;27185;52.040;4.490;2023-09-08T03:15:34;20.40;99.90
41447;DHT22;27185;52.040;4.490;2023-09-08T03:18:20;20.40;99.90
41447;DHT22;27185;52.040;4.490;2023-09-08T03:21:06;20.30;99.90
41447;DHT22;27185;52.040;4.490;2023-09-08T03:23:54;20.30;99.90
41447;DHT22;27185;52.040;4.490;2023-09-08T03:26:40;20.30;99.90
41447;DHT22;27185;52.040;4.490;2023-09-08T03:29:25;20.30;99.90
41447;DHT22;27185;52.040;4.490;2023-09-08T03:32:11;20.20;99.90
41447;DHT22;27185;52.040;4.490;2023-09-08T03:34:57;20.20;99.90
41447;DHT22;27185;52.040;4.490;2023-09-08T03:37:42;20.20;99.90
41447;DHT22;27185;52.040;4.490;2023-09-08T03:40:28;20.20;99.90
41447;DHT22;27185;52.040;4.490;2023-09-08T03:43:13;20.10;99.90
41447;DHT22;27185;52.040;4.490;2023-09-08T03:45:59;20.10;99.90
41447;DHT22;27185;52.040;4.490;2023-09-08T03:48:44;20.00;99.90
41447;DHT22;27185;52.040;4.490;2023-09-08T03:51:30;20.00;99.90
41447;DHT22;27185;52.040;4.490;2023-09-08T03:54:16;20.00;99.90
41447;DHT22;27185;52.040;4.490;2023-09-08T03:57:01;19.90;99.90
41447;DHT22;27185;52.040;4.490;2023-09-08T03:59:47;19.90;99.90
41447;DHT22;27185;52.040;4.490;2023-09-08T04:02:32;19.90;99.90
41447;DHT22;27185;52.040;4.490;2023-09-08T04:05:18;19.90;99.90
41447;DHT22;27185;52.040;4.490;2023-09-08T04:08:04;19.90;99.90
41447;DHT22;27185;52.040;4.490;2023-09-08T04:10:50;19.80;99.90
41447;DHT22;27185;52.040;4.490;2023-09-08T04:13:36;19.80;99.90
41447;DHT22;27185;52.040;4.490;2023-09-08T04:16:21;19.80;99.90
41447;DHT22;27185;52.040;4.490;2023-09-08T04:19:07;19.80;99.90
41447;DHT22;27185;52.040;4.490;2023-09-08T04:21:52;19.80;99.90
41447;DHT22;27185;52.040;4.490;2023-09-08T04:24:38;19.80;99.90
41447;DHT22;27185;52.040;4.490;2023-09-08T04:27:24;19.70;99.90
41447;DHT22;27185;52.040;4.490;2023-09-08T04:30:10;19.70;99.90
41447;DHT22;27185;52.040;4.490;2023-09-08T04:32:55;19.70;99.90
41447;DHT22;27185;52.040;4.490;2023-09-08T04:35:41;19.60;99.90
41447;DHT22;27185;52.040;4.490;2023-09-08T04:38:27;19.60;99.90
41447;DHT22;27185;52.040;4.490;2023-09-08T04:41:12;19.60;99.90
41447;DHT22;27185;52.040;4.490;2023-09-08T04:43:58;19.70;99.90
41447;DHT22;27185;52.040;4.490;2023-09-08T04:46:43;19.60;99.90
41447;DHT22;27185;52.040;4.490;2023-09-08T04:49:29;19.60;99.90
41447;DHT22;27185;52.040;4.490;2023-09-08T04:52:15;19.60;99.90
41447;DHT22;27185;52.040;4.490;2023-09-08T04:55:00;19.60;99.90
41447;DHT22;27185;52.040;4.490;2023-09-08T04:57:46;19.60;99.90
41447;DHT22;27185;52.040;4.490;2023-09-08T05:00:31;19.60;99.90
41447;DHT22;27185;52.040;4.490;2023-09-08T05:03:18;19.60;99.90
41447;DHT22;27185;52.040;4.490;2023-09-08T05:06:04;19.60;99.90
41447;DHT22;27185;52.040;4.490;2023-09-08T05:08:50;19.60;99.90
41447;DHT22;27185;52.040;4.490;2023-09-08T05:11:35;19.60;99.90
41447;DHT22;27185;52.040;4.490;2023-09-08T05:14:21;19.60;99.90
41447;DHT22;27185;52.040;4.490;2023-09-08T05:17:06;19.60;99.90
41447;DHT22;27185;52.040;4.490;2023-09-08T05:19:52;19.50;99.90
41447;DHT22;27185;52.040;4.490;2023-09-08T05:22:38;19.50;99.90
41447;DHT22;27185;52.040;4.490;2023-09-08T05:25:23;19.50;99.90
41447;DHT22;27185;52.040;4.490;2023-09-08T05:28:09;19.50;99.90
41447;DHT22;27185;52.040;4.490;2023-09-08T05:30:55;19.50;99.90
41447;DHT22;27185;52.040;4.490;2023-09-08T05:33:40;19.50;99.90
41447;DHT22;27185;52.040;4.490;2023-09-08T05:36:26;19.50;99.90
41447;DHT22;27185;52.040;4.490;2023-09-08T05:39:13;19.50;99.90
41447;DHT22;27185;52.040;4.490;2023-09-08T05:41:59;19.40;99.90
41447;DHT22;27185;52.040;4.490;2023-09-08T05:44:45;19.50;99.90
41447;DHT22;27185;52.040;4.490;2023-09-08T05:47:31;19.50;99.90
41447;DHT22;27185;52.040;4.490;2023-09-08T05:50:17;19.50;99.90
41447;DHT22;27185;52.040;4.490;2023-09-08T05:53:03;19.40;99.90
41447;DHT22;27185;52.040;4.490;2023-09-08T05:55:48;19.40;99.90
41447;DHT22;27185;52.040;4.490;2023-09-08T05:58:34;19.40;99.90
41447;DHT22;27185;52.040;4.490;2023-09-08T06:01:20;19.50;99.90
41447;DHT22;27185;52.040;4.490;2023-09-08T06:04:05;19.50;99.90
41447;DHT22;27185;52.040;4.490;2023-09-08T06:06:51;19.50;99.90
41447;DHT22;27185;52.040;4.490;2023-09-08T06:09:37;19.60;99.90
41447;DHT22;27185;52.040;4.490;2023-09-08T06:12:22;19.60;99.90
41447;DHT22;27185;52.040;4.490;2023-09-08T06:15:08;19.60;99.90
41447;DHT22;27185;52.040;4.490;2023-09-08T06:17:53;19.70;99.90
41447;DHT22;27185;52.040;4.490;2023-09-08T06:20:46;19.70;99.90
41447;DHT22;27185;52.040;4.490;2023-09-08T06:23:35;19.80;99.90
41447;DHT22;27185;52.040;4.490;2023-09-08T06:26:20;19.80;99.90
41447;DHT22;27185;52.040;4.490;2023-09-08T06:29:06;19.90;99.90
41447;DHT22;27185;52.040;4.490;2023-09-08T06:31:52;20.00;99.90
41447;DHT22;27185;52.040;4.490;2023-09-08T06:34:37;20.00;99.90
41447;DHT22;27185;52.040;4.490;2023-09-08T06:37:23;20.10;99.90
41447;DHT22;27185;52.040;4.490;2023-09-08T06:40:09;20.20;99.90
41447;DHT22;27185;52.040;4.490;2023-09-08T06:42:54;20.30;99.90
41447;DHT22;27185;52.040;4.490;2023-09-08T06:45:40;20.40;99.90
41447;DHT22;27185;52.040;4.490;2023-09-08T06:48:27;20.40;99.90
41447;DHT22;27185;52.040;4.490;2023-09-08T06:51:12;20.50;99.90
41447;DHT22;27185;52.040;4.490;2023-09-08T06:53:58;20.60;99.90
41447;DHT22;27185;52.040;4.490;2023-09-08T06:56:45;20.60;99.90
41447;DHT22;27185;52.040;4.490;2023-09-08T06:59:31;20.70;99.90
41447;DHT22;27185;52.040;4.490;2023-09-08T07:02:16;20.80;99.90
41447;DHT22;27185;52.040;4.490;2023-09-08T07:05:02;20.90;99.90
41447;DHT22;27185;52.040;4.490;2023-09-08T07:07:51;21.00;99.90
41447;DHT22;27185;52.040;4.490;2023-09-08T07:10:37;21.10;99.90
41447;DHT22;27185;52.040;4.490;2023-09-08T07:13:23;21.10;99.90
41447;DHT22;27185;52.040;4.490;2023-09-08T07:16:09;21.30;99.90
41447;DHT22;27185;52.040;4.490;2023-09-08T07:18:54;21.30;99.90
41447;DHT22;27185;52.040;4.490;2023-09-08T07:21:40;21.40;99.90
41447;DHT22;27185;52.040;4.490;2023-09-08T07:24:25;21.50;99.90
41447;DHT22;27185;52.040;4.490;2023-09-08T07:27:11;21.60;99.90
41447;DHT22;27185;52.040;4.490;2023-09-08T07:29:59;21.70;99.90
41447;DHT22;27185;52.040;4.490;2023-09-08T07:32:45;21.80;99.90
41447;DHT22;27185;52.040;4.490;2023-09-08T07:35:30;21.90;99.90
41447;DHT22;27185;52.040;4.490;2023-09-08T07:38:17;22.00;99.90
41447;DHT22;27185;52.040;4.490;2023-09-08T07:41:02;22.10;99.90
41447;DHT22;27185;52.040;4.490;2023-09-08T07:43:48;22.20;99.90
41447;DHT22;27185;52.040;4.490;2023-09-08T07:46:34;22.40;99.90
41447;DHT22;27185;52.040;4.490;2023-09-08T07:49:19;22.50;99.90
41447;DHT22;27185;52.040;4.490;2023-09-08T07:52:05;22.60;99.90
41447;DHT22;27185;52.040;4.490;2023-09-08T07:54:52;22.70;99.90
41447;DHT22;27185;52.040;4.490;2023-09-08T07:57:38;22.80;99.90
41447;DHT22;27185;52.040;4.490;2023-09-08T08:00:24;22.90;99.90
41447;DHT22;27185;52.040;4.490;2023-09-08T08:03:09;23.10;99.90
41447;DHT22;27185;52.040;4.490;2023-09-08T08:05:56;23.20;99.90
41447;DHT22;27185;52.040;4.490;2023-09-08T08:08:42;23.30;99.90
41447;DHT22;27185;52.040;4.490;2023-09-08T08:11:27;23.40;99.90
41447;DHT22;27185;52.040;4.490;2023-09-08T08:14:13;23.50;99.90
41447;DHT22;27185;52.040;4.490;2023-09-08T08:16:59;23.60;99.90
41447;DHT22;27185;52.040;4.490;2023-09-08T08:19:45;23.80;99.90
41447;DHT22;27185;52.040;4.490;2023-09-08T08:22:30;23.90;99.90
41447;DHT22;27185;52.040;4.490;2023-09-08T08:25:16;24.00;99.90
41447;DHT22;27185;52.040;4.490;2023-09-08T08:28:02;24.20;99.90
41447;DHT22;27185;52.040;4.490;2023-09-08T08:30:48;24.30;99.90
41447;DHT22;27185;52.040;4.490;2023-09-08T08:33:33;24.40;99.90
41447;DHT22;27185;52.040;4.490;2023-09-08T08:36:19;24.60;99.90
41447;DHT22;27185;52.040;4.490;2023-09-08T08:39:04;24.70;99.90
41447;DHT22;27185;52.040;4.490;2023-09-08T08:41:50;24.80;99.90
41447;DHT22;27185;52.040;4.490;2023-09-08T08:44:40;24.90;99.90
41447;DHT22;27185;52.040;4.490;2023-09-08T08:47:28;25.10;99.90
41447;DHT22;27185;52.040;4.490;2023-09-08T08:50:14;25.30;99.90
41447;DHT22;27185;52.040;4.490;2023-09-08T08:53:02;25.40;99.90
41447;DHT22;27185;52.040;4.490;2023-09-08T08:55:49;25.50;99.90
41447;DHT22;27185;52.040;4.490;2023-09-08T08:58:37;25.70;99.90
41447;DHT22;27185;52.040;4.490;2023-09-08T09:01:24;25.90;99.90
41447;DHT22;27185;52.040;4.490;2023-09-08T09:04:12;26.10;99.90
41447;DHT22;27185;52.040;4.490;2023-09-08T09:06:59;26.20;99.90
41447;DHT22;27185;52.040;4.490;2023-09-08T09:09:45;26.30;99.90
41447;DHT22;27185;52.040;4.490;2023-09-08T09:12:32;26.40;99.90
41447;DHT22;27185;52.040;4.490;2023-09-08T09:15:28;26.60;99.90
41447;DHT22;27185;52.040;4.490;2023-09-08T09:18:14;26.70;99.90
41447;DHT22;27185;52.040;4.490;2023-09-08T09:21:01;26.90;99.90
41447;DHT22;27185;52.040;4.490;2023-09-08T09:23:47;27.00;99.90
41447;DHT22;27185;52.040;4.490;2023-09-08T09:26:32;27.20;99.90
41447;DHT22;27185;52.040;4.490;2023-09-08T09:29:18;27.30;99.90
41447;DHT22;27185;52.040;4.490;2023-09-08T09:32:06;27.50;99.90
41447;DHT22;27185;52.040;4.490;2023-09-08T09:34:53;27.60;99.90
41447;DHT22;27185;52.040;4.490;2023-09-08T09:37:40;27.70;99.90
41447;DHT22;27185;52.040;4.490;2023-09-08T09:40:28;27.90;99.90
41447;DHT22;27185;52.040;4.490;2023-09-08T09:43:14;28.00;99.90
41447;DHT22;27185;52.040;4.490;2023-09-08T09:46:00;28.10;99.50
41447;DHT22;27185;52.040;4.490;2023-09-08T09:48:46;28.30;99.80
41447;DHT22;27185;52.040;4.490;2023-09-08T09:51:32;28.40;99.50
41447;DHT22;27185;52.040;4.490;2023-09-08T09:54:17;28.50;99.50
41447;DHT22;27185;52.040;4.490;2023-09-08T09:57:03;28.60;99.20
41447;DHT22;27185;52.040;4.490;2023-09-08T09:59:49;28.70;99.10
41447;DHT22;27185;52.040;4.490;2023-09-08T10:02:36;28.80;99.00
41447;DHT22;27185;52.040;4.490;2023-09-08T10:05:27;28.90;98.40
41447;DHT22;27185;52.040;4.490;2023-09-08T10:08:12;29.10;98.40
41447;DHT22;27185;52.040;4.490;2023-09-08T10:10:59;29.10;98.40
41447;DHT22;27185;52.040;4.490;2023-09-08T10:13:51;29.30;98.30
41447;DHT22;27185;52.040;4.490;2023-09-08T10:16:40;29.40;98.10
41447;DHT22;27185;52.040;4.490;2023-09-08T10:19:28;29.50;97.60
41447;DHT22;27185;52.040;4.490;2023-09-08T10:22:15;29.50;97.30
41447;DHT22;27185;52.040;4.490;2023-09-08T10:25:06;29.60;96.90
41447;DHT22;27185;52.040;4.490;2023-09-08T10:27:54;29.80;96.90
41447;DHT22;27185;52.040;4.490;2023-09-08T10:30:40;30.20;96.60
41447;DHT22;27185;52.040;4.490;2023-09-08T10:33:27;30.60;96.20
41447;DHT22;27185;52.040;4.490;2023-09-08T10:36:13;31.20;95.80
41447;DHT22;27185;52.040;4.490;2023-09-08T10:39:34;31.70;95.10
41447;DHT22;27185;52.040;4.490;2023-09-08T10:42:27;32.30;92.20
41447;DHT22;27185;52.040;4.490;2023-09-08T10:45:16;32.80;93.30
41447;DHT22;27185;52.040;4.490;2023-09-08T10:48:02;33.10;93.00
41447;DHT22;27185;52.040;4.490;2023-09-08T10:50:48;33.50;92.70
41447;DHT22;27185;52.040;4.490;2023-09-08T10:53:37;33.80;92.00
41447;DHT22;27185;52.040;4.490;2023-09-08T10:56:27;34.00;91.00
41447;DHT22;27185;52.040;4.490;2023-09-08T10:59:13;34.30;90.30
41447;DHT22;27185;52.040;4.490;2023-09-08T11:02:03;34.40;90.90
41447;DHT22;27185;52.040;4.490;2023-09-08T11:04:49;34.70;89.60
41447;DHT22;27185;52.040;4.490;2023-09-08T11:07:39;34.90;90.10
41447;DHT22;27185;52.040;4.490;2023-09-08T11:10:25;35.10;88.60
41447;DHT22;27185;52.040;4.490;2023-09-08T11:13:11;35.30;89.30
41447;DHT22;27185;52.040;4.490;2023-09-08T11:15:57;35.60;87.80
41447;DHT22;27185;52.040;4.490;2023-09-08T11:18:43;35.70;86.50
41447;DHT22;27185;52.040;4.490;2023-09-08T11:21:28;35.80;85.20
41447;DHT22;27185;52.040;4.490;2023-09-08T11:24:20;35.80;84.60
41447;DHT22;27185;52.040;4.490;2023-09-08T11:27:05;35.90;84.50
41447;DHT22;27185;52.040;4.490;2023-09-08T11:29:51;36.00;84.30
41447;DHT22;27185;52.040;4.490;2023-09-08T11:32:37;36.20;83.70
41447;DHT22;27185;52.040;4.490;2023-09-08T11:35:26;36.40;82.10
41447;DHT22;27185;52.040;4.490;2023-09-08T11:38:12;36.50;82.00
41447;DHT22;27185;52.040;4.490;2023-09-08T11:40:58;36.70;82.10
41447;DHT22;27185;52.040;4.490;2023-09-08T11:43:44;36.90;80.10
41447;DHT22;27185;52.040;4.490;2023-09-08T11:46:30;36.90;78.80
41447;DHT22;27185;52.040;4.490;2023-09-08T11:49:19;36.90;79.50
41447;DHT22;27185;52.040;4.490;2023-09-08T11:52:07;37.00;78.70
41447;DHT22;27185;52.040;4.490;2023-09-08T11:54:52;37.00;78.50
41447;DHT22;27185;52.040;4.490;2023-09-08T11:57:40;37.10;77.90
41447;DHT22;27185;52.040;4.490;2023-09-08T12:00:27;37.10;77.10
41447;DHT22;27185;52.040;4.490;2023-09-08T12:03:14;37.20;77.40
41447;DHT22;27185;52.040;4.490;2023-09-08T12:06:00;37.20;77.20
41447;DHT22;27185;52.040;4.490;2023-09-08T12:08:47;37.30;76.40
41447;DHT22;27185;52.040;4.490;2023-09-08T12:11:34;37.30;75.50
41447;DHT22;27185;52.040;4.490;2023-09-08T12:14:20;37.30;75.40
41447;DHT22;27185;52.040;4.490;2023-09-08T12:17:06;37.20;75.00
41447;DHT22;27185;52.040;4.490;2023-09-08T12:19:53;37.20;75.60
41447;DHT22;27185;52.040;4.490;2023-09-08T12:22:47;37.20;75.50
41447;DHT22;27185;52.040;4.490;2023-09-08T12:25:33;37.10;73.50
41447;DHT22;27185;52.040;4.490;2023-09-08T12:28:20;37.10;75.20
41447;DHT22;27185;52.040;4.490;2023-09-08T12:31:08;37.10;74.80
41447;DHT22;27185;52.040;4.490;2023-09-08T12:33:54;37.20;74.70
41447;DHT22;27185;52.040;4.490;2023-09-08T12:36:43;37.20;75.00
41447;DHT22;27185;52.040;4.490;2023-09-08T12:39:29;37.30;72.40
41447;DHT22;27185;52.040;4.490;2023-09-08T12:42:15;37.30;74.00
41447;DHT22;27185;52.040;4.490;2023-09-08T12:45:00;37.40;73.40
41447;DHT22;27185;52.040;4.490;2023-09-08T12:47:46;37.30;72.60
41447;DHT22;27185;52.040;4.490;2023-09-08T12:50:32;37.40;73.20
41447;DHT22;27185;52.040;4.490;2023-09-08T12:53:18;37.30;72.00
41447;DHT22;27185;52.040;4.490;2023-09-08T12:56:03;37.40;72.00
41447;DHT22;27185;52.040;4.490;2023-09-08T12:58:49;37.30;71.60
41447;DHT22;27185;52.040;4.490;2023-09-08T13:01:34;37.30;71.40
41447;DHT22;27185;52.040;4.490;2023-09-08T13:04:20;37.20;71.80
41447;DHT22;27185;52.040;4.490;2023-09-08T13:07:07;37.10;72.20
41447;DHT22;27185;52.040;4.490;2023-09-08T13:09:53;37.20;71.80
41447;DHT22;27185;52.040;4.490;2023-09-08T13:12:38;37.30;72.00
41447;DHT22;27185;52.040;4.490;2023-09-08T13:15:24;37.30;71.00
41447;DHT22;27185;52.040;4.490;2023-09-08T13:18:09;37.50;71.60
41447;DHT22;27185;52.040;4.490;2023-09-08T13:20:55;37.70;72.40
41447;DHT22;27185;52.040;4.490;2023-09-08T13:23:40;37.90;72.60
41447;DHT22;27185;52.040;4.490;2023-09-08T13:26:26;38.20;71.10
41447;DHT22;27185;52.040;4.490;2023-09-08T13:29:11;38.30;70.00
41447;DHT22;27185;52.040;4.490;2023-09-08T13:31:57;38.20;69.20
41447;DHT22;27185;52.040;4.490;2023-09-08T13:34:43;38.10;69.10
41447;DHT22;27185;52.040;4.490;2023-09-08T13:37:29;38.00;69.20
41447;DHT22;27185;52.040;4.490;2023-09-08T13:40:16;37.80;69.50
41447;DHT22;27185;52.040;4.490;2023-09-08T13:43:01;37.60;70.80
41447;DHT22;27185;52.040;4.490;2023-09-08T13:45:47;37.60;70.90
41447;DHT22;27185;52.040;4.490;2023-09-08T13:48:32;37.50;71.00
41447;DHT22;27185;52.040;4.490;2023-09-08T13:51:18;37.60;71.10
41447;DHT22;27185;52.040;4.490;2023-09-08T13:54:03;37.80;71.00
41447;DHT22;27185;52.040;4.490;2023-09-08T13:57:03;37.90;69.60
41447;DHT22;27185;52.040;4.490;2023-09-08T13:59:49;38.00;69.10
41447;DHT22;27185;52.040;4.490;2023-09-08T14:02:35;38.00;69.60
41447;DHT22;27185;52.040;4.490;2023-09-08T14:05:20;38.00;69.40
41447;DHT22;27185;52.040;4.490;2023-09-08T14:08:06;38.10;69.60
41447;DHT22;27185;52.040;4.490;2023-09-08T14:10:52;38.20;70.60
41447;DHT22;27185;52.040;4.490;2023-09-08T14:13:38;38.30;68.60
41447;DHT22;27185;52.040;4.490;2023-09-08T14:16:24;38.30;68.70
41447;DHT22;27185;52.040;4.490;2023-09-08T14:19:10;38.30;68.00
41447;DHT22;27185;52.040;4.490;2023-09-08T14:21:55;38.50;67.80
41447;DHT22;27185;52.040;4.490;2023-09-08T14:24:41;38.60;67.50
41447;DHT22;27185;52.040;4.490;2023-09-08T14:27:27;38.70;66.60
41447;DHT22;27185;52.040;4.490;2023-09-08T14:30:13;38.70;66.20
41447;DHT22;27185;52.040;4.490;2023-09-08T14:32:58;38.70;64.30
41447;DHT22;27185;52.040;4.490;2023-09-08T14:35:45;38.50;65.80
41447;DHT22;27185;52.040;4.490;2023-09-08T14:38:36;38.30;65.80
41447;DHT22;27185;52.040;4.490;2023-09-08T14:41:22;38.20;66.00
41447;DHT22;27185;52.040;4.490;2023-09-08T14:44:07;38.20;65.40
41447;DHT22;27185;52.040;4.490;2023-09-08T14:46:53;38.10;65.10
41447;DHT22;27185;52.040;4.490;2023-09-08T14:49:38;38.00;65.20
41447;DHT22;27185;52.040;4.490;2023-09-08T14:52:25;38.00;65.00
41447;DHT22;27185;52.040;4.490;2023-09-08T14:55:10;38.00;65.00
41447;DHT22;27185;52.040;4.490;2023-09-08T14:57:56;37.90;65.00
41447;DHT22;27185;52.040;4.490;2023-09-08T15:00:42;38.00;65.50
41447;DHT22;27185;52.040;4.490;2023-09-08T15:03:27;38.00;65.40
41447;DHT22;27185;52.040;4.490;2023-09-08T15:06:13;38.10;66.70
41447;DHT22;27185;52.040;4.490;2023-09-08T15:08:58;38.20;67.30
41447;DHT22;27185;52.040;4.490;2023-09-08T15:11:44;38.20;67.20
41447;DHT22;27185;52.040;4.490;2023-09-08T15:14:30;38.30;67.70
41447;DHT22;27185;52.040;4.490;2023-09-08T15:17:15;38.20;67.30
41447;DHT22;27185;52.040;4.490;2023-09-08T15:20:02;38.20;67.20
41447;DHT22;27185;52.040;4.490;2023-09-08T15:22:48;38.10;67.50
41447;DHT22;27185;52.040;4.490;2023-09-08T15:25:34;38.00;67.50
41447;DHT22;27185;52.040;4.490;2023-09-08T15:28:20;37.90;68.00
41447;DHT22;27185;52.040;4.490;2023-09-08T15:31:05;37.90;68.10
41447;DHT22;27185;52.040;4.490;2023-09-08T15:33:51;37.80;68.40
41447;DHT22;27185;52.040;4.490;2023-09-08T15:36:37;37.70;68.70
41447;DHT22;27185;52.040;4.490;2023-09-08T15:39:23;37.70;69.00
41447;DHT22;27185;52.040;4.490;2023-09-08T15:42:08;37.50;69.00
41447;DHT22;27185;52.040;4.490;2023-09-08T15:44:54;37.40;69.20
41447;DHT22;27185;52.040;4.490;2023-09-08T15:47:40;37.30;69.40
41447;DHT22;27185;52.040;4.490;2023-09-08T15:50:25;37.20;69.80
41447;DHT22;27185;52.040;4.490;2023-09-08T15:53:12;37.20;70.20
41447;DHT22;27185;52.040;4.490;2023-09-08T15:55:58;37.10;70.10
41447;DHT22;27185;52.040;4.490;2023-09-08T15:58:43;36.90;70.50
41447;DHT22;27185;52.040;4.490;2023-09-08T16:01:29;36.70;70.80
41447;DHT22;27185;52.040;4.490;2023-09-08T16:04:15;36.40;71.40
41447;DHT22;27185;52.040;4.490;2023-09-08T16:07:00;36.10;71.40
41447;DHT22;27185;52.040;4.490;2023-09-08T16:09:46;35.80;71.80
41447;DHT22;27185;52.040;4.490;2023-09-08T16:12:32;35.60;72.40
41447;DHT22;27185;52.040;4.490;2023-09-08T16:15:17;35.50;72.60
41447;DHT22;27185;52.040;4.490;2023-09-08T16:18:03;35.40;72.80
41447;DHT22;27185;52.040;4.490;2023-09-08T16:20:50;35.30;73.10
41447;DHT22;27185;52.040;4.490;2023-09-08T16:23:35;35.20;73.10
41447;DHT22;27185;52.040;4.490;2023-09-08T16:26:22;35.20;73.10
41447;DHT22;27185;52.040;4.490;2023-09-08T16:29:07;35.20;73.10
41447;DHT22;27185;52.040;4.490;2023-09-08T16:31:53;35.20;73.40
41447;DHT22;27185;52.040;4.490;2023-09-08T16:34:38;35.20;73.40
41447;DHT22;27185;52.040;4.490;2023-09-08T16:37:24;35.20;73.50
41447;DHT22;27185;52.040;4.490;2023-09-08T16:40:10;35.20;73.70
41447;DHT22;27185;52.040;4.490;2023-09-08T16:42:55;35.10;73.90
41447;DHT22;27185;52.040;4.490;2023-09-08T16:45:41;35.00;74.80
41447;DHT22;27185;52.040;4.490;2023-09-08T16:48:26;35.00;74.60
41447;DHT22;27185;52.040;4.490;2023-09-08T16:51:12;34.80;75.00
41447;DHT22;27185;52.040;4.490;2023-09-08T16:53:58;34.60;75.20
41447;DHT22;27185;52.040;4.490;2023-09-08T16:56:43;34.40;75.40
41447;DHT22;27185;52.040;4.490;2023-09-08T16:59:29;34.20;76.00
41447;DHT22;27185;52.040;4.490;2023-09-08T17:02:14;34.00;76.10
41447;DHT22;27185;52.040;4.490;2023-09-08T17:05:00;33.70;76.20
41447;DHT22;27185;52.040;4.490;2023-09-08T17:07:46;33.30;76.20
41447;DHT22;27185;52.040;4.490;2023-09-08T17:10:34;32.90;76.80
41447;DHT22;27185;52.040;4.490;2023-09-08T17:13:20;32.60;77.60
41447;DHT22;27185;52.040;4.490;2023-09-08T17:16:05;32.20;78.00
41447;DHT22;27185;52.040;4.490;2023-09-08T17:18:51;31.80;78.60
41447;DHT22;27185;52.040;4.490;2023-09-08T17:21:36;31.50;78.90
41447;DHT22;27185;52.040;4.490;2023-09-08T17:24:22;31.10;79.50
41447;DHT22;27185;52.040;4.490;2023-09-08T17:27:08;30.80;80.20
41447;DHT22;27185;52.040;4.490;2023-09-08T17:29:54;30.50;80.50
41447;DHT22;27185;52.040;4.490;2023-09-08T17:32:39;30.30;81.00
41447;DHT22;27185;52.040;4.490;2023-09-08T17:35:25;30.10;81.40